Hefei Luogang International Airport
ZSOF : now visible

Airfield :











YOU CAN JOIN US ON...

 
LOGIN :

Register | Disclaimer

   EN    FR    IT 

 









Legend :    VFR   Marginal VFR   IFR   Intensive IFR   Very Intensive IFR
Visi :
Ceiling :
>= 8 km
>= 3000ft
5 to 8 km
1000 to 3000 ft
1500m to 5 km
500 to 1000 ft
800 to 1500m
200 to 500 ft
< 800m
< 200 ft
Symbols :   Thunderstorms  Fog  Heavy snow  Heavy precipitations  Wind > 20 kt







- Airport Elevation : 108 ft
- IATA code : HFE


ZSOF - Hefei Luogang International

CURRENT METAR :
  • 191600Z 07002MPS 6000 NSC 16/13 Q1011 NOSIG

EXPIRED METARs :
  • 191500Z 08003MPS 8000 NSC 16/13 Q1011 NOSIG
  • 191400Z 08004MPS CAVOK 17/13 Q1011 NOSIG

TAF TAF ZSOF
Valid from the 19 at 12:00 until the 20 at 12:00 UTC


190905Z 1912/2012 06004MPS 3000 HZ NSC TX25/2006Z TN17/1922Z
ZSHA FIR / Asia



MET'MAP, your aeronautical weather chart ! - Copyright ORBIFLY December 2007 - Disclaimer

ORBIFLY MET'MAP TEAM :

Programming & Development : Alexandra Zaïnal
Concept & Development : Baudouin d'Aumeries
Co-Development & Prog : Marc-Olivier Méhu
Technical & hardware support : Manuel Goepfert

Contact : metmap@orbifly.com




SOURCES & CREDITS :

   NOAA       Earth
Advisory